Time;durP1;ratioP1;P1;durP2;ratioP2;P2;SDS_P1;SDS_P2;PMS_P1;PMS_P2;Temp;Humidity;BMP_temperature;BMP_pressure;BME280_temperature;BME280_humidity;BME280_pressure;Samples;Min_cycle;Max_cycle;Signal;HPM_P1;HPM_P2
2022/10/10 00:00:45;;;;;;;2.36;2.08;;;;;;;14.80;77.78;100686.48;463593;114;930462;-77
2022/10/10 00:01:48;;;;;;;3.58;2.05;;;;;;;14.81;77.73;100684.58;463651;114;922578;-76
2022/10/10 00:02:51;;;;;;;2.60;1.71;;;;;;;14.81;77.71;100684.58;463697;114;923025;-78
2022/10/10 00:03:55;;;;;;;3.62;2.08;;;;;;;14.80;77.70;100686.48;463662;114;922568;-78
2022/10/10 00:04:57;;;;;;;3.09;1.82;;;;;;;14.79;77.56;100686.72;463619;114;930998;-78
2022/10/10 00:06:00;;;;;;;3.52;2.17;;;;;;;14.80;77.52;100671.92;463692;114;922607;-77
2022/10/10 00:07:04;;;;;;;2.56;1.63;;;;;;;14.78;77.47;100674.91;463754;114;922908;-77
2022/10/10 00:08:07;;;;;;;3.16;1.86;;;;;;;14.78;77.48;100671.32;463011;114;922673;-77
2022/10/10 00:09:10;;;;;;;7.48;2.15;;;;;;;14.79;77.56;100675.74;463083;114;922845;-77
2022/10/10 00:10:14;;;;;;;2.73;1.67;;;;;;;14.79;77.61;100673.00;463533;114;922805;-77
2022/10/10 00:11:19;;;;;;;3.37;2.00;;;;;;;14.79;77.66;100671.09;463615;114;930318;-77
2022/10/10 00:12:22;;;;;;;2.52;2.02;;;;;;;14.81;77.67;100674.44;463447;114;922503;-77
2022/10/10 00:13:25;;;;;;;1.95;1.72;;;;;;;14.80;77.52;100678.25;463642;114;922597;-78
2022/10/10 00:14:28;;;;;;;5.14;2.04;;;;;;;14.79;77.53;100679.32;463707;114;922595;-78
2022/10/10 00:15:33;;;;;;;2.17;1.96;;;;;;;14.80;77.44;100681.00;463234;114;923156;-77
2022/10/10 00:16:36;;;;;;;2.26;1.78;;;;;;;14.79;77.43;100676.58;463667;114;923172;-78
2022/10/10 00:17:39;;;;;;;4.24;1.99;;;;;;;14.78;77.46;100674.91;463676;114;922438;-77
2022/10/10 00:18:42;;;;;;;2.43;1.73;;;;;;;14.78;77.47;100674.91;463671;114;922726;-76
2022/10/10 00:19:45;;;;;;;2.86;1.83;;;;;;;14.78;77.43;100674.91;463674;114;922877;-77
2022/10/10 00:20:50;;;;;;;3.24;1.98;;;;;;;14.77;77.40;100678.75;463643;114;922749;-77
2022/10/10 00:21:53;;;;;;;3.52;2.24;;;;;;;14.77;77.40;100669.67;463447;114;922497;-77
2022/10/10 00:22:55;;;;;;;2.88;2.21;;;;;;;14.77;77.36;100673.26;463609;114;923035;-78
2022/10/10 00:23:59;;;;;;;3.51;1.87;;;;;;;14.78;77.31;100674.06;463611;114;923114;-78
2022/10/10 00:25:04;;;;;;;4.58;1.68;;;;;;;14.77;77.36;100670.52;463593;114;923160;-78
2022/10/10 00:26:07;;;;;;;4.16;2.19;;;;;;;14.76;77.48;100671.58;463472;114;922788;-78
2022/10/10 00:27:12;;;;;;;4.48;1.56;;;;;;;14.77;77.45;100672.42;463509;114;922827;-77
2022/10/10 00:28:15;;;;;;;2.95;1.91;;;;;;;14.78;77.38;100668.58;463678;114;922499;-76
2022/10/10 00:29:18;;;;;;;4.17;2.11;;;;;;;14.78;77.38;100674.06;463578;114;922890;-77
2022/10/10 00:30:21;;;;;;;4.30;1.81;;;;;;;14.78;77.52;100671.32;463578;114;930538;-78
2022/10/10 00:31:24;;;;;;;2.09;1.78;;;;;;;14.78;77.35;100669.41;463643;114;922624;-78
2022/10/10 00:32:27;;;;;;;2.76;2.22;;;;;;;14.78;77.29;100671.32;463676;114;923060;-77
2022/10/10 00:33:30;;;;;;;4.53;1.84;;;;;;;14.78;77.37;100674.06;463629;114;922962;-76
2022/10/10 00:34:33;;;;;;;2.79;1.84;;;;;;;14.77;77.33;100669.67;463638;114;923425;-76
2022/10/10 00:35:36;;;;;;;3.01;2.27;;;;;;;14.77;77.53;100672.42;463327;114;923046;-77
2022/10/10 00:36:39;;;;;;;4.77;2.46;;;;;;;14.75;77.53;100664.42;463067;114;922465;-78
2022/10/10 00:37:42;;;;;;;3.31;2.16;;;;;;;14.75;77.62;100658.92;462947;114;923017;-77
2022/10/10 00:38:45;;;;;;;3.28;2.02;;;;;;;14.74;77.73;100661.91;462903;114;930343;-77
2022/10/10 00:39:48;;;;;;;3.30;2.09;;;;;;;14.75;77.85;100653.44;463047;114;922685;-77
2022/10/10 00:40:53;;;;;;;2.79;2.01;;;;;;;14.75;77.88;100658.09;463022;114;922962;-77
2022/10/10 00:41:56;;;;;;;3.57;2.08;;;;;;;14.75;78.10;100652.60;463052;112;922874;-78
2022/10/10 00:42:59;;;;;;;2.42;1.96;;;;;;;14.74;78.11;100657.25;471364;112;923033;-77
2022/10/10 00:44:04;;;;;;;4.57;2.38;;;;;;;14.75;78.23;100661.67;471352;112;922799;-77
2022/10/10 00:45:23;;;;;;;3.41;2.01;;;;;;;14.76;78.31;100662.52;471101;112;922721;-77
2022/10/10 00:46:26;;;;;;;5.28;2.14;;;;;;;14.76;78.25;100666.09;471147;112;922650;-78
2022/10/10 00:47:28;;;;;;;2.66;1.92;;;;;;;14.74;78.27;100657.25;471456;112;922469;-77
2022/10/10 00:48:38;;;;;;;3.29;2.41;;;;;;;14.74;78.23;100667.39;471375;112;922318;-77
2022/10/10 00:49:43;;;;;;;2.72;2.29;;;;;;;14.72;78.21;100667.63;470676;112;922481;-78
2022/10/10 00:51:01;;;;;;;4.34;2.39;;;;;;;14.71;78.24;100667.89;471117;112;923017;-77
2022/10/10 00:52:08;;;;;;;2.96;1.99;;;;;;;14.70;78.27;100666.21;463765;112;922911;-78
2022/10/10 00:53:12;;;;;;;3.61;2.26;;;;;;;14.69;78.39;100667.28;462909;114;922594;-77
2022/10/10 00:54:17;;;;;;;3.11;2.09;;;;;;;14.67;78.52;100656.53;463116;114;922641;-78
2022/10/10 00:55:20;;;;;;;2.81;1.78;;;;;;;14.68;78.72;100669.19;462988;114;922484;-78
2022/10/10 00:56:26;;;;;;;1.72;1.52;;;;;;;14.68;78.75;100665.61;463103;114;922500;-77
2022/10/10 00:57:29;;;;;;;2.03;1.78;;;;;;;14.68;78.88;100658.20;463006;114;922493;-78
2022/10/10 00:58:34;;;;;;;2.40;1.78;;;;;;;14.69;78.94;100665.38;463221;114;922562;-78
2022/10/10 00:59:40;;;;;;;3.73;1.81;;;;;;;14.69;78.94;100659.89;463099;114;922582;-78
2022/10/10 01:00:43;;;;;;;3.17;2.11;;;;;;;14.69;78.94;100664.53;462962;114;923237;-78
2022/10/10 01:01:46;;;;;;;2.21;1.85;;;;;;;14.69;79.04;100664.53;463149;114;923010;-78
2022/10/10 01:02:49;;;;;;;3.24;2.04;;;;;;;14.68;79.09;100658.20;463101;114;922560;-78
2022/10/10 01:04:00;;;;;;;3.30;2.12;;;;;;;14.69;79.18;100662.62;463175;114;922599;-78
2022/10/10 01:05:03;;;;;;;3.09;1.68;;;;;;;14.69;79.32;100654.39;463003;114;923107;-78
2022/10/10 01:06:07;;;;;;;3.71;1.87;;;;;;;14.70;79.34;100650.58;463066;114;922395;-78
2022/10/10 01:07:13;;;;;;;2.24;1.82;;;;;;;14.71;79.29;100656.91;463140;114;930277;-77
2022/10/10 01:08:18;;;;;;;3.26;2.24;;;;;;;14.71;79.46;100651.42;457006;114;922526;-78
2022/10/10 01:09:21;;;;;;;4.93;2.40;;;;;;;14.71;79.38;100651.42;462957;114;922477;-78
2022/10/10 01:10:24;;;;;;;2.89;1.82;;;;;;;14.70;79.39;100650.58;463137;114;922982;-76
2022/10/10 01:11:49;;;;;;;2.52;1.64;;;;;;;14.71;79.47;100649.52;463131;114;922867;-78
2022/10/10 01:13:07;;;;;;;3.33;2.03;;;;;;;14.71;79.48;100645.94;462790;114;930325;-78
2022/10/10 01:14:22;;;;;;;3.33;1.74;;;;;;;14.69;79.50;100645.33;462966;114;922556;-78
2022/10/10 01:15:35;;;;;;;2.60;1.84;;;;;;;14.68;79.50;100647.23;462962;114;923006;-79
2022/10/10 01:17:02;;;;;;;2.99;2.03;;;;;;;14.68;79.56;100646.39;462791;114;922865;-77
2022/10/10 01:18:14;;;;;;;2.30;2.05;;;;;;;14.66;79.67;100643.91;462422;114;922764;-78
2022/10/10 01:19:32;;;;;;;2.38;1.82;;;;;;;14.67;79.82;100641.97;450200;114;923306;-78
2022/10/10 01:20:44;;;;;;;4.56;1.86;;;;;;;14.67;79.81;100644.72;459981;114;922534;-77
2022/10/10 01:21:51;;;;;;;3.06;1.83;;;;;;;14.66;79.89;100643.91;462954;114;922582;-76
2022/10/10 01:23:05;;;;;;;2.28;2.08;;;;;;;14.76;79.93;100637.81;482427;110;946767;-78
2022/10/10 01:24:35;;;;;;;1.83;1.57;;;;;;;14.66;80.04;100654.05;472481;112;922994;-77
2022/10/10 01:25:41;;;;;;;2.31;2.05;;;;;;;14.65;80.03;100642.23;473417;112;922518;-77
2022/10/10 01:27:08;;;;;;;2.59;1.84;;;;;;;14.65;79.93;100647.73;473769;112;930737;-77
2022/10/10 01:28:35;;;;;;;2.66;1.69;;;;;;;14.64;80.02;100648.80;473883;112;922530;-77
2022/10/10 01:29:44;;;;;;;1.99;1.79;;;;;;;14.63;80.05;100638.89;472985;112;922499;-77
2022/10/10 01:30:48;;;;;;;2.47;1.68;;;;;;;14.63;80.12;100643.54;465441;114;922559;-78
2022/10/10 01:31:54;;;;;;;3.59;1.97;;;;;;;14.60;80.13;100642.96;465524;113;922875;-78
2022/10/10 01:33:13;;;;;;;2.16;1.80;;;;;;;14.61;80.19;100644.61;465378;114;930566;-79
2022/10/10 01:34:35;;;;;;;3.81;2.03;;;;;;;14.72;80.14;100653.09;470163;110;946752;-77
2022/10/10 01:35:47;;;;;;;2.98;1.96;;;;;;;14.59;80.09;100652.27;457308;113;922506;-76
2022/10/10 01:36:59;;;;;;;2.04;1.91;;;;;;;14.58;80.07;100647.84;439557;120;922678;-78
2022/10/10 01:38:23;;;;;;;2.52;1.78;;;;;;;14.58;80.07;100647.00;453393;115;923002;-76
2022/10/10 01:39:41;;;;;;;1.82;1.72;;;;;;;14.56;80.21;100644.49;455253;116;922670;-77
2022/10/10 01:40:57;;;;;;;2.73;1.79;;;;;;;14.56;80.28;100638.17;456061;116;922490;-78
2022/10/10 01:42:15;;;;;;;2.98;2.08;;;;;;;14.56;80.28;100643.66;455709;116;923011;-77
2022/10/10 01:43:18;;;;;;;2.14;1.95;;;;;;;14.54;80.27;100643.92;456523;116;923019;-78
2022/10/10 01:44:21;;;;;;;2.40;1.84;;;;;;;14.53;80.35;100639.50;457088;116;922614;-80
2022/10/10 01:45:24;;;;;;;2.86;1.89;;;;;;;14.54;80.32;100640.34;457092;116;922501;-78
2022/10/10 01:46:27;;;;;;;2.59;2.08;;;;;;;14.53;80.27;100644.98;448215;116;923239;-78
2022/10/10 01:47:30;;;;;;;2.92;1.79;;;;;;;14.52;80.34;100637.82;448493;116;930345;-77
2022/10/10 01:48:33;;;;;;;3.87;2.03;;;;;;;14.51;80.31;100640.80;457091;116;922543;-78
2022/10/10 01:49:37;;;;;;;2.34;1.78;;;;;;;14.51;80.35;100635.31;457121;116;923044;-77
2022/10/10 01:51:09;;;;;;;2.73;2.11;;;;;;;14.52;80.33;100635.08;457010;114;922950;-76
2022/10/10 01:52:21;;;;;;;3.08;1.97;;;;;;;14.53;80.35;100636.75;449511;118;922893;-77
2022/10/10 01:53:44;;;;;;;2.54;1.83;;;;;;;14.54;80.45;100627.45;449509;117;922551;-78
2022/10/10 01:54:54;;;;;;;3.68;2.08;;;;;;;14.55;80.48;100631.03;449550;118;923036;-77
2022/10/10 01:56:05;;;;;;;3.98;2.14;;;;;;;14.54;80.53;100626.62;448571;117;922747;-77
2022/10/10 01:57:34;;;;;;;2.49;2.11;;;;;;;14.54;80.53;100630.20;449545;118;922538;-77
2022/10/10 01:58:46;;;;;;;2.28;1.84;;;;;;;14.54;80.57;100626.62;449561;118;922415;-77
2022/10/10 01:59:59;;;;;;;5.16;2.07;;;;;;;14.54;80.68;100623.87;449552;117;922508;-78
2022/10/10 02:01:23;;;;;;;5.77;2.17;;;;;;;14.52;80.70;100621.36;449461;118;923159;-78
2022/10/10 02:03:00;;;;;;;3.45;1.94;;;;;;;14.52;80.75;100626.84;449568;117;922844;-77
2022/10/10 02:04:25;;;;;;;2.98;2.01;;;;;;;14.52;80.89;100621.36;449508;118;923031;-77
2022/10/10 02:05:34;;;;;;;2.57;2.01;;;;;;;14.51;80.72;100625.17;449570;117;922542;-78
2022/10/10 02:06:43;;;;;;;2.79;2.27;;;;;;;14.49;80.74;100621.85;449238;117;922571;-78
2022/10/10 02:07:58;;;;;;;3.08;1.88;;;;;;;14.49;80.72;100616.37;449473;117;922521;-77
2022/10/10 02:09:08;;;;;;;2.54;2.33;;;;;;;14.48;80.74;100622.92;449452;118;922622;-77
2022/10/10 02:10:14;;;;;;;2.81;1.99;;;;;;;14.48;80.90;100613.86;449455;117;922704;-77
2022/10/10 02:11:17;;;;;;;3.06;1.97;;;;;;;14.49;80.86;100619.11;449346;117;922669;-76
2022/10/10 02:12:22;;;;;;;3.21;1.81;;;;;;;14.50;80.72;100618.02;449669;117;922541;-78
2022/10/10 02:13:28;;;;;;;4.13;2.14;;;;;;;14.51;80.68;100619.69;449575;117;923106;-76
2022/10/10 02:14:35;;;;;;;2.27;2.07;;;;;;;14.51;80.75;100622.43;449486;118;922505;-78
2022/10/10 02:15:41;;;;;;;3.36;1.74;;;;;;;14.52;80.79;100615.03;450139;116;922543;-77
2022/10/10 02:16:47;;;;;;;2.69;1.88;;;;;;;14.52;80.69;100620.52;448594;118;922501;-77
2022/10/10 02:17:52;;;;;;;3.91;2.10;;;;;;;14.52;80.69;100620.52;457207;116;923093;-77
2022/10/10 02:18:58;;;;;;;3.59;1.97;;;;;;;14.54;80.77;100619.22;457242;116;922574;-78
2022/10/10 02:20:01;;;;;;;1.90;1.77;;;;;;;14.55;80.94;100620.86;457209;116;922479;-77
2022/10/10 02:21:07;;;;;;;3.41;1.87;;;;;;;14.57;80.91;100618.73;457385;116;922890;-76
2022/10/10 02:22:10;;;;;;;2.30;1.84;;;;;;;14.58;80.91;100612.17;457168;116;922576;-77
2022/10/10 02:23:16;;;;;;;2.02;1.86;;;;;;;14.58;80.88;100617.66;457367;116;922870;-78
2022/10/10 02:24:21;;;;;;;3.22;1.73;;;;;;;14.60;80.91;100614.69;457146;116;922586;-76
2022/10/10 02:25:29;;;;;;;2.84;1.89;;;;;;;14.60;80.92;100617.42;457192;116;922871;-75
2022/10/10 02:26:35;;;;;;;3.64;1.76;;;;;;;14.61;80.88;100619.91;457199;116;923033;-77
2022/10/10 02:27:47;;;;;;;5.01;1.77;;;;;;;14.62;81.22;100612.52;457291;116;922456;-77
2022/10/10 02:29:08;;;;;;;3.02;1.78;;;;;;;14.62;81.22;100612.52;448600;118;931046;-77
2022/10/10 02:30:13;;;;;;;2.14;1.51;;;;;;;14.63;80.96;100613.35;455306;116;922851;-77
2022/10/10 02:31:22;;;;;;;3.63;1.93;;;;;;;14.63;81.08;100611.44;454343;116;922970;-77
2022/10/10 02:32:41;;;;;;;2.53;1.84;;;;;;;14.63;81.01;100616.09;456831;116;923167;-77
2022/10/10 02:33:47;;;;;;;2.51;1.59;;;;;;;14.63;81.03;100622.42;457998;116;922403;-77
2022/10/10 02:34:53;;;;;;;3.04;1.89;;;;;;;14.63;81.03;100622.42;456909;116;922438;-77
2022/10/10 02:35:58;;;;;;;3.00;2.19;;;;;;;14.64;81.02;100623.26;454880;116;922702;-75
2022/10/10 02:37:04;;;;;;;3.06;1.67;;;;;;;14.64;81.04;100620.52;454978;116;922563;-77
2022/10/10 02:38:10;;;;;;;2.69;1.59;;;;;;;14.64;81.12;100628.75;454923;116;922231;-76
2022/10/10 02:39:15;;;;;;;2.34;2.11;;;;;;;14.64;81.07;100623.26;454497;116;922979;-77
2022/10/10 02:40:24;;;;;;;3.17;1.89;;;;;;;14.65;81.05;100625.77;454180;116;923138;-77
2022/10/10 02:41:28;;;;;;;2.81;1.98;;;;;;;14.64;81.05;100624.09;454145;116;923034;-76
2022/10/10 02:42:32;;;;;;;2.51;1.55;;;;;;;14.65;81.06;100624.94;454265;116;922525;-77
2022/10/10 02:43:36;;;;;;;1.71;1.61;;;;;;;14.65;80.99;100631.27;454255;116;922454;-78
2022/10/10 02:44:40;;;;;;;2.74;1.57;;;;;;;14.65;80.97;100622.19;454242;116;930338;-78
2022/10/10 02:45:44;;;;;;;2.21;1.92;;;;;;;14.64;81.00;100624.09;454122;116;923034;-76
2022/10/10 02:46:47;;;;;;;3.08;1.91;;;;;;;14.66;81.03;100621.12;454185;116;930730;-76
2022/10/10 02:47:50;;;;;;;2.99;1.62;;;;;;;14.66;81.05;100621.95;454181;117;922473;-77
2022/10/10 02:48:53;;;;;;;1.88;1.66;;;;;;;14.66;81.08;100623.86;454167;116;923002;-77
2022/10/10 02:49:56;;;;;;;4.19;1.76;;;;;;;14.67;81.01;100623.60;454168;117;922490;-77
2022/10/10 02:50:59;;;;;;;2.92;2.08;;;;;;;14.66;80.97;100627.45;454169;117;922944;-78
2022/10/10 02:52:03;;;;;;;2.33;1.67;;;;;;;14.67;80.94;100622.77;455548;116;923206;-78
2022/10/10 02:53:05;;;;;;;2.11;1.86;;;;;;;14.67;80.99;100622.77;455606;116;923910;-77
2022/10/10 02:54:08;;;;;;;4.04;2.11;;;;;;;14.66;80.92;100621.95;455657;116;930393;-77
2022/10/10 02:55:11;;;;;;;2.01;1.87;;;;;;;14.66;80.94;100624.70;455774;116;923061;-77
2022/10/10 02:56:14;;;;;;;1.94;1.77;;;;;;;14.66;80.96;100616.47;455710;116;922885;-78
2022/10/10 02:57:17;;;;;;;2.24;1.73;;;;;;;14.67;81.02;100618.11;455617;116;922456;-77
2022/10/10 02:58:20;;;;;;;2.39;1.61;;;;;;;14.67;81.07;100623.60;455668;116;922669;-77
2022/10/10 02:59:23;;;;;;;3.90;1.98;;;;;;;14.70;81.07;100625.05;455680;116;923113;-77
2022/10/10 03:00:26;;;;;;;3.92;1.98;;;;;;;14.69;81.06;100620.63;455634;116;922520;-77
2022/10/10 03:01:28;;;;;;;4.11;1.84;;;;;;;14.69;81.09;100618.72;455626;116;923014;-76
2022/10/10 03:02:31;;;;;;;1.87;1.66;;;;;;;14.71;81.15;100619.33;455765;116;922374;-77
2022/10/10 03:03:35;;;;;;;2.81;2.13;;;;;;;14.72;81.18;100615.48;455684;116;922829;-78
2022/10/10 03:04:38;;;;;;;4.47;2.30;;;;;;;14.72;81.04;100620.97;455618;116;922513;-77
2022/10/10 03:05:40;;;;;;;2.12;1.89;;;;;;;14.72;81.04;100620.16;455649;116;922488;-77
2022/10/10 03:06:44;;;;;;;4.61;1.85;;;;;;;14.72;80.91;100615.48;455737;116;922545;-77
2022/10/10 03:07:47;;;;;;;3.31;1.72;;;;;;;14.72;80.91;100620.97;455778;116;923383;-77
2022/10/10 03:08:49;;;;;;;2.69;1.77;;;;;;;14.72;80.93;100620.16;455651;116;922962;-77
2022/10/10 03:09:52;;;;;;;3.20;1.98;;;;;;;14.72;80.96;100620.97;455698;116;922580;-78
2022/10/10 03:10:58;;;;;;;4.42;2.27;;;;;;;14.71;80.92;100618.48;455674;116;923141;-78
2022/10/10 03:12:01;;;;;;;6.73;1.94;;;;;;;14.71;80.91;100619.33;455563;116;923108;-77
2022/10/10 03:13:04;;;;;;;6.66;2.21;;;;;;;14.71;80.89;100615.74;455672;116;922583;-78
2022/10/10 03:14:07;;;;;;;3.04;2.13;;;;;;;14.70;81.02;100606.67;455717;116;922447;-78
2022/10/10 03:15:10;;;;;;;2.89;2.16;;;;;;;14.71;80.92;100621.23;455697;116;922867;-77
2022/10/10 03:16:14;;;;;;;5.68;2.25;;;;;;;14.71;80.89;100618.48;453557;116;922529;-77
2022/10/10 03:17:17;;;;;;;2.30;2.11;;;;;;;14.70;80.95;100606.67;452758;117;930550;-77
2022/10/10 03:18:20;;;;;;;2.08;1.88;;;;;;;14.70;80.88;100614.06;452808;117;922573;-78
2022/10/10 03:19:23;;;;;;;2.22;2.05;;;;;;;14.69;80.86;100610.48;452838;117;922640;-78
2022/10/10 03:20:26;;;;;;;4.16;1.88;;;;;;;14.68;80.86;100617.05;452837;117;922881;-77
2022/10/10 03:21:29;;;;;;;3.00;1.90;;;;;;;14.69;80.90;100609.65;452816;117;922487;-78
2022/10/10 03:22:32;;;;;;;3.96;1.77;;;;;;;14.69;80.94;100610.48;452846;117;922984;-77
2022/10/10 03:23:34;;;;;;;2.30;1.72;;;;;;;14.69;81.09;100601.41;452866;117;922920;-78
2022/10/10 03:24:37;;;;;;;2.23;1.98;;;;;;;14.70;81.03;100605.83;452856;117;922583;-77
2022/10/10 03:25:42;;;;;;;4.63;2.40;;;;;;;14.71;81.06;100602.02;452632;117;922941;-77
2022/10/10 03:26:45;;;;;;;2.99;2.14;;;;;;;14.71;81.04;100602.02;452771;117;922491;-77
2022/10/10 03:27:47;;;;;;;2.19;1.99;;;;;;;14.71;81.10;100597.37;452841;117;922668;-77
2022/10/10 03:28:50;;;;;;;4.32;1.90;;;;;;;14.72;81.08;100606.44;452837;117;922490;-77
2022/10/10 03:29:53;;;;;;;2.37;1.94;;;;;;;14.72;81.07;100599.02;453356;116;922953;-77
2022/10/10 03:30:56;;;;;;;2.11;2.01;;;;;;;14.73;81.03;100600.69;453109;116;922892;-77
2022/10/10 03:31:59;;;;;;;4.06;2.09;;;;;;;14.72;81.01;100593.52;441010;120;922993;-79
2022/10/10 03:33:02;;;;;;;2.50;2.22;;;;;;;14.73;81.02;100588.87;457411;116;922465;-77
2022/10/10 03:34:05;;;;;;;4.20;2.23;;;;;;;14.73;81.07;100592.45;457338;116;923375;-78
2022/10/10 03:35:08;;;;;;;4.06;2.41;;;;;;;14.72;81.07;100593.52;457442;115;922604;-78
2022/10/10 03:36:12;;;;;;;2.84;2.40;;;;;;;14.73;81.01;100591.61;457384;113;923104;-77
2022/10/10 03:37:15;;;;;;;4.66;2.11;;;;;;;14.73;81.03;100594.36;457448;115;922509;-78
2022/10/10 03:38:18;;;;;;;3.64;2.62;;;;;;;14.72;81.00;100592.72;457400;115;922519;-78
2022/10/10 03:39:21;;;;;;;2.02;1.91;;;;;;;14.72;81.03;100593.52;457413;116;922520;-78
2022/10/10 03:40:24;;;;;;;3.36;2.06;;;;;;;14.72;81.08;100599.02;457446;115;922375;-78
2022/10/10 03:41:27;;;;;;;5.11;2.21;;;;;;;14.71;81.05;100597.37;457285;113;922454;-78
2022/10/10 03:42:30;;;;;;;2.67;2.42;;;;;;;14.71;80.85;100604.77;457420;116;922943;-76
2022/10/10 03:43:33;;;;;;;2.42;2.17;;;;;;;14.70;80.80;100606.67;457409;115;922469;-77
2022/10/10 03:44:37;;;;;;;3.38;2.36;;;;;;;14.69;80.72;100610.48;457433;115;922540;-78
2022/10/10 03:45:49;;;;;;;4.35;2.21;;;;;;;14.67;80.65;100601.64;457288;113;922962;-78
2022/10/10 03:46:52;;;;;;;2.71;2.46;;;;;;;14.66;80.72;100610.98;457156;116;930391;-78
2022/10/10 03:47:54;;;;;;;2.59;2.34;;;;;;;14.64;80.71;100609.53;457398;115;922427;-77
2022/10/10 03:48:57;;;;;;;2.39;2.12;;;;;;;14.64;80.67;100615.86;457495;115;922468;-77
2022/10/10 03:50:00;;;;;;;3.22;2.54;;;;;;;14.63;80.68;100607.86;457395;115;922531;-77
2022/10/10 03:51:03;;;;;;;5.27;2.49;;;;;;;14.63;80.73;100605.12;457429;113;922578;-76
2022/10/10 03:52:06;;;;;;;3.43;2.46;;;;;;;14.63;80.75;100605.12;453818;115;922473;-76
2022/10/10 03:53:09;;;;;;;3.11;2.24;;;;;;;14.63;80.82;100607.86;453304;117;922356;-77
2022/10/10 03:54:11;;;;;;;4.01;2.41;;;;;;;14.62;80.82;100604.28;453277;117;922899;-77
2022/10/10 03:55:14;;;;;;;2.56;2.12;;;;;;;14.62;80.88;100607.02;453273;117;922661;-77
2022/10/10 03:56:17;;;;;;;2.14;2.02;;;;;;;14.61;80.90;100600.70;453245;117;923122;-76
2022/10/10 03:57:20;;;;;;;2.44;2.02;;;;;;;14.63;80.96;100605.12;453264;117;922633;-76
2022/10/10 03:58:23;;;;;;;3.39;2.47;;;;;;;14.61;81.00;100597.95;453249;117;922657;-76
2022/10/10 03:59:26;;;;;;;4.52;2.42;;;;;;;14.63;80.94;100603.21;453255;117;922902;-77
2022/10/10 04:00:29;;;;;;;2.51;1.87;;;;;;;14.63;80.94;100594.98;453286;117;922973;-77
2022/10/10 04:01:32;;;;;;;5.90;2.96;;;;;;;14.63;81.00;100599.63;453165;117;922950;-77
2022/10/10 04:02:35;;;;;;;2.88;2.31;;;;;;;14.64;81.02;100595.81;453212;117;922972;-76
2022/10/10 04:03:38;;;;;;;2.98;2.27;;;;;;;14.64;80.97;100604.05;453325;117;922818;-77
2022/10/10 04:04:41;;;;;;;3.22;2.06;;;;;;;14.63;80.84;100600.47;453288;117;922967;-77
2022/10/10 04:05:44;;;;;;;2.51;2.31;;;;;;;14.62;80.84;100604.28;453293;117;922545;-77
2022/10/10 04:06:47;;;;;;;4.22;2.34;;;;;;;14.62;80.78;100601.54;453233;117;922980;-77
2022/10/10 04:07:50;;;;;;;2.98;2.37;;;;;;;14.61;80.74;100602.61;453273;117;922998;-78
2022/10/10 04:08:53;;;;;;;3.07;2.15;;;;;;;14.61;80.74;100606.19;453283;117;922823;-77
2022/10/10 04:09:56;;;;;;;3.02;2.20;;;;;;;14.61;80.76;100608.93;453218;117;923331;-77
2022/10/10 04:10:59;;;;;;;4.55;2.54;;;;;;;14.61;80.74;100608.93;453238;117;923149;-77
2022/10/10 04:12:01;;;;;;;3.14;2.29;;;;;;;14.61;80.82;100608.93;453328;117;922622;-76
2022/10/10 04:13:04;;;;;;;2.56;2.31;;;;;;;14.63;80.78;100605.12;453335;117;922488;-77
2022/10/10 04:14:07;;;;;;;3.83;2.72;;;;;;;14.63;80.84;100610.61;453304;117;923074;-77
2022/10/10 04:15:10;;;;;;;3.52;2.44;;;;;;;14.64;80.84;100606.80;453225;117;922499;-77
2022/10/10 04:16:13;;;;;;;4.12;2.60;;;;;;;14.64;80.92;100615.86;453617;117;923136;-77
2022/10/10 04:17:16;;;;;;;2.79;2.54;;;;;;;14.66;80.89;100615.63;453822;117;922509;-77
2022/10/10 04:18:19;;;;;;;3.69;2.18;;;;;;;14.66;80.88;100608.23;444894;119;923116;-76
2022/10/10 04:19:22;;;;;;;3.35;2.76;;;;;;;14.67;80.80;100614.53;445436;119;923040;-78
2022/10/10 04:20:25;;;;;;;2.89;2.59;;;;;;;14.67;80.72;100609.87;442780;120;923601;-77
2022/10/10 04:21:28;;;;;;;3.56;2.81;;;;;;;14.67;80.63;100614.53;441414;120;922570;-77
2022/10/10 04:22:31;;;;;;;2.01;1.80;;;;;;;14.67;80.64;100622.77;440328;120;923474;-77
2022/10/10 04:23:34;;;;;;;4.03;2.77;;;;;;;14.65;80.65;100612.05;437570;120;923049;-76
2022/10/10 04:24:37;;;;;;;2.58;2.19;;;;;;;14.65;80.67;100620.28;437561;121;922600;-76
2022/10/10 04:25:40;;;;;;;3.19;2.32;;;;;;;14.65;80.67;100619.45;437238;121;922852;-77
2022/10/10 04:26:43;;;;;;;3.34;2.46;;;;;;;14.64;80.64;100613.13;445434;119;922680;-77
2022/10/10 04:27:46;;;;;;;2.75;2.55;;;;;;;14.64;80.66;100618.61;440525;120;922678;-76
2022/10/10 04:28:49;;;;;;;2.96;2.51;;;;;;;14.64;80.69;100612.28;457379;116;923076;-76
2022/10/10 04:29:52;;;;;;;2.54;2.06;;;;;;;14.64;80.72;100615.03;456528;115;923025;-77
2022/10/10 04:30:55;;;;;;;3.61;2.59;;;;;;;14.63;80.75;100614.19;454149;116;922455;-77
2022/10/10 04:31:58;;;;;;;2.86;2.37;;;;;;;14.63;80.81;100616.94;456540;116;922549;-76
2022/10/10 04:33:01;;;;;;;3.02;2.71;;;;;;;14.64;80.79;100620.52;457335;116;922530;-76
2022/10/10 04:34:04;;;;;;;4.32;2.54;;;;;;;14.64;80.76;100617.77;457245;116;922474;-77
2022/10/10 04:35:07;;;;;;;3.61;2.58;;;;;;;14.63;80.82;100618.84;457487;115;922791;-77
2022/10/10 04:36:10;;;;;;;4.01;2.73;;;;;;;14.63;80.72;100627.08;457446;114;922878;-77
2022/10/10 04:37:13;;;;;;;2.59;2.32;;;;;;;14.63;80.70;100627.08;457519;115;930524;-77
2022/10/10 04:38:18;;;;;;;2.77;2.34;;;;;;;14.63;80.68;100627.08;457560;115;923050;-76
2022/10/10 04:39:22;;;;;;;3.94;2.54;;;;;;;14.62;80.75;100620.75;457338;116;922922;-77
2022/10/10 04:40:24;;;;;;;6.06;3.15;;;;;;;14.61;80.75;100624.56;451359;117;922555;-76
2022/10/10 04:41:29;;;;;;;3.39;2.95;;;;;;;14.61;80.83;100625.39;451617;116;923111;-76
2022/10/10 04:42:32;;;;;;;3.23;2.97;;;;;;;14.62;80.84;100620.75;457460;115;922820;-77
2022/10/10 04:43:35;;;;;;;3.12;2.80;;;;;;;14.63;80.88;100624.33;457497;115;922519;-78
2022/10/10 04:44:38;;;;;;;3.87;2.43;;;;;;;14.63;80.89;100627.08;457487;115;922973;-76
2022/10/10 04:45:41;;;;;;;4.67;2.21;;;;;;;14.61;80.95;100619.91;457473;114;923020;-79
2022/10/10 04:46:45;;;;;;;4.84;3.24;;;;;;;14.63;80.99;100629.81;457438;115;922568;-77
2022/10/10 04:47:47;;;;;;;3.07;2.64;;;;;;;14.63;80.95;100632.56;457382;116;923216;-77
2022/10/10 04:48:50;;;;;;;7.36;2.89;;;;;;;14.63;80.92;100625.17;457427;116;922623;-77
2022/10/10 04:49:53;;;;;;;3.92;2.67;;;;;;;14.63;81.05;100629.81;457402;116;923078;-77
2022/10/10 04:50:58;;;;;;;3.30;2.58;;;;;;;14.64;80.99;100634.23;457448;114;922594;-76
2022/10/10 04:52:01;;;;;;;3.41;2.91;;;;;;;14.63;81.04;100625.17;453043;115;922358;-77
2022/10/10 04:53:03;;;;;;;5.89;2.81;;;;;;;14.64;81.02;100623.26;451944;117;923093;-77
2022/10/10 04:54:06;;;;;;;3.77;2.61;;;;;;;14.64;81.02;100631.49;451965;117;922569;-77
2022/10/10 04:55:09;;;;;;;4.00;3.09;;;;;;;14.64;81.05;100629.59;451966;117;922534;-77
2022/10/10 04:56:12;;;;;;;2.54;2.29;;;;;;;14.65;81.06;100630.42;452010;117;922375;-77
2022/10/10 04:57:15;;;;;;;6.88;3.03;;;;;;;14.65;81.03;100625.77;451960;117;922548;-77
2022/10/10 04:58:18;;;;;;;4.26;2.36;;;;;;;14.66;81.01;100626.61;451973;117;922985;-76
2022/10/10 04:59:21;;;;;;;2.79;2.34;;;;;;;14.66;80.92;100627.45;451959;117;922487;-77
2022/10/10 05:00:23;;;;;;;3.46;2.61;;;;;;;14.67;80.86;100626.34;451966;117;922541;-77
2022/10/10 05:01:26;;;;;;;2.71;2.44;;;;;;;14.68;80.79;100622.53;451989;117;922945;-76
2022/10/10 05:02:29;;;;;;;2.74;2.17;;;;;;;14.68;80.68;100621.70;451979;117;922871;-77